Date,TemperatureHighF,TemperatureAvgF,TemperatureLowF,DewpointHighF,DewpointAvgF,DewpointLowF,HumidityHigh,HumidityAvg,HumidityLow,PressureMaxIn,PressureMinIn,WindSpeedMaxMPH,WindSpeedAvgMPH,GustSpeedMaxMPH,PrecipitationSumIn
2013-1-1,19,8,-4,-100,-100,-100,0,0,100,0.00,40.00,0,-999,0,0.01
2013-1-2,19,3,-11,-100,-100,-100,0,0,100,0.00,40.00,0,-999,0,0.00
2013-1-3,35,18,1,-100,-100,-100,0,0,100,0.00,40.00,0,-999,0,0.01
2013-1-4,35,21,11,-100,-100,-100,0,0,100,0.00,40.00,0,-999,0,0.02
2013-1-5,27,15,8,-100,-100,-100,0,0,100,0.00,40.00,0,-999,0,0.00
2013-1-6,33,21,14,-100,-100,-100,0,0,100,0.00,40.00,0,-999,0,0.01
2013-1-7,22,18,14,-100,-100,-100,0,0,100,0.00,40.00,0,-999,0,0.00
2013-1-8,21,18,16,-100,-100,-100,0,0,100,0.00,40.00,0,-999,0,0.01
2013-1-9,30,24,18,-100,-100,-100,0,0,100,0.00,40.00,0,-999,0,0.01
2013-1-10,31,24,16,-100,-100,-100,0,0,100,0.00,40.00,0,-999,0,0.00
2013-1-11,16,5,-6,-100,-100,-100,0,0,100,0.00,40.00,0,-999,0,0.00
2013-1-12,9,-5,-15,-100,-100,-100,0,0,100,0.00,40.00,0,-999,0,0.00
2013-1-13,2,-10,-20,-100,-100,-100,0,0,100,0.00,40.00,0,-999,0,0.00
2013-1-14,1,-7,-16,-100,-100,-100,0,0,100,0.00,40.00,0,-999,0,0.01
2013-1-15,18,10,1,-100,-100,-100,0,0,100,0.00,40.00,0,-999,0,0.02
2013-1-16,24,17,10,-100,-100,-100,0,0,100,0.00,40.00,0,-999,0,0.01
2013-1-17,32,21,14,-100,-100,-100,0,0,100,0.00,40.00,0,-999,0,0.00
2013-1-18,32,23,18,-100,-100,-100,0,0,100,0.00,40.00,0,-999,0,0.01
2013-1-19,29,20,17,-100,-100,-100,0,0,100,0.00,40.00,0,-999,0,0.00
2013-1-20,29,20,11,-100,-100,-100,0,0,100,0.00,40.00,0,-999,0,0.00
2013-1-21,30,24,20,-100,-100,-100,0,0,100,0.00,40.00,0,-999,0,0.01
2013-1-22,35,27,20,-100,-100,-100,0,0,100,0.00,40.00,0,-999,0,0.00
2013-1-23,35,29,26,-100,-100,-100,0,0,100,0.00,40.00,0,-999,0,0.00
2013-1-24,29,26,22,-100,-100,-100,0,0,100,0.00,40.00,0,-999,0,0.00
2013-1-25,29,25,22,-100,-100,-100,0,0,100,0.00,40.00,0,-999,0,0.01
2013-1-26,33,28,26,-100,-100,-100,0,0,100,0.00,40.00,0,-999,0,0.01
2013-1-27,29,24,17,-100,-100,-100,0,0,100,0.00,40.00,0,-999,0,0.01
2013-1-28,15,10,5,-100,-100,-100,0,0,100,0.00,40.00,0,-999,0,0.01
2013-1-29,13,6,-5,-100,-100,-100,0,0,100,0.00,40.00,0,-999,0,0.00
2013-1-30,21,15,6,-100,-100,-100,0,0,100,0.00,40.00,0,-999,0,0.02
2013-1-31,25,22,19,-100,-100,-100,0,0,100,0.00,40.00,0,-999,0,0.01